Time;durP1;ratioP1;P1;durP2;ratioP2;P2;SDS_P1;SDS_P2;PMS_P1;PMS_P2;Temp;Humidity;BMP_temperature;BMP_pressure;BME280_temperature;BME280_humidity;BME280_pressure;Samples;Min_cycle;Max_cycle;Signal;HPM_P1;HPM_P2
2021/04/19 00:02:17;;;;;;;28.65;18.08;;;5.70;99.90;;;;;;5035958;28;20032;-70
2021/04/19 00:04:43;;;;;;;29.58;19.02;;;5.80;99.90;;;;;;5052958;28;20025;-70
2021/04/19 00:07:09;;;;;;;29.02;18.23;;;5.80;99.90;;;;;;5065557;28;20059;-70
2021/04/19 00:09:35;;;;;;;28.17;17.45;;;5.60;99.90;;;;;;5073795;28;20031;-70
2021/04/19 00:12:01;;;;;;;29.48;18.40;;;5.50;99.90;;;;;;5073610;28;20503;-70
2021/04/19 00:14:27;;;;;;;28.05;18.50;;;5.50;99.90;;;;;;5072733;28;20108;-70
2021/04/19 00:16:53;;;;;;;29.42;17.67;;;5.60;99.90;;;;;;5073372;28;20108;-70
2021/04/19 00:19:18;;;;;;;27.48;16.90;;;5.50;99.90;;;;;;5055598;28;20063;-70
2021/04/19 00:21:44;;;;;;;26.40;16.80;;;5.60;99.90;;;;;;5073364;28;20033;-70
2021/04/19 00:24:10;;;;;;;31.83;18.95;;;5.50;99.90;;;;;;5072885;28;20020;-70
2021/04/19 00:26:36;;;;;;;36.85;20.17;;;5.60;99.90;;;;;;5073118;28;20050;-70
2021/04/19 00:29:02;;;;;;;33.10;20.73;;;5.60;99.90;;;;;;5072910;28;20031;-70
2021/04/19 00:31:27;;;;;;;34.40;21.25;;;5.60;99.90;;;;;;5073140;28;20025;-71
2021/04/19 00:33:53;;;;;;;34.50;19.23;;;5.60;99.90;;;;;;5071627;28;20039;-71
2021/04/19 00:36:19;;;;;;;31.45;19.60;;;5.50;99.90;;;;;;5072922;28;20111;-71
2021/04/19 00:38:44;;;;;;;29.00;18.42;;;5.40;99.90;;;;;;5072966;28;20131;-70
2021/04/19 00:41:11;;;;;;;30.08;18.55;;;5.30;99.90;;;;;;5072928;28;20024;-71
2021/04/19 00:43:38;;;;;;;28.33;18.30;;;5.20;99.90;;;;;;5072086;28;20028;-70
2021/04/19 00:46:04;;;;;;;28.73;17.63;;;5.00;99.90;;;;;;5072772;28;20023;-70
2021/04/19 00:48:35;;;;;;;33.95;19.50;;;4.90;99.90;;;;;;5072830;28;20066;-71
2021/04/19 00:51:01;;;;;;;31.05;19.90;;;4.90;99.90;;;;;;5072283;28;20107;-70
2021/04/19 00:53:28;;;;;;;31.67;20.05;;;5.00;99.90;;;;;;5071951;28;20429;-71
2021/04/19 00:55:55;;;;;;;34.75;20.77;;;5.00;99.90;;;;;;5072563;28;20044;-70
2021/04/19 00:58:26;;;;;;;27.05;17.48;;;5.00;99.90;;;;;;5072363;28;20017;-70
2021/04/19 01:00:52;;;;;;;30.25;18.17;;;4.90;99.90;;;;;;5072821;28;20032;-70
2021/04/19 01:03:19;;;;;;;32.38;18.17;;;4.90;99.90;;;;;;5071882;28;20025;-71
2021/04/19 01:05:46;;;;;;;29.08;17.73;;;4.90;99.90;;;;;;5072730;28;20084;-69
2021/04/19 01:08:11;;;;;;;24.92;17.35;;;5.10;99.90;;;;;;5072621;28;20070;-70
2021/04/19 01:10:38;;;;;;;27.70;17.90;;;5.00;99.90;;;;;;5072303;28;20025;-69
2021/04/19 01:13:05;;;;;;;26.10;16.85;;;5.00;99.90;;;;;;5053639;28;20127;-71
2021/04/19 01:15:31;;;;;;;25.48;15.75;;;4.90;99.90;;;;;;5072342;28;20021;-71
2021/04/19 01:17:57;;;;;;;26.98;17.10;;;4.80;99.90;;;;;;5072404;28;20028;-71
2021/04/19 01:20:25;;;;;;;22.30;15.93;;;4.80;99.90;;;;;;5054486;28;20031;-70
2021/04/19 01:22:51;;;;;;;29.20;18.75;;;4.80;99.90;;;;;;5071400;28;20026;-70
2021/04/19 01:25:20;;;;;;;26.63;17.80;;;4.90;99.90;;;;;;5072398;28;20044;-71
2021/04/19 01:27:46;;;;;;;29.20;18.00;;;5.00;99.90;;;;;;5072549;28;20104;-71
2021/04/19 01:30:15;;;;;;;29.38;19.33;;;4.90;99.90;;;;;;5072371;28;20467;-70
2021/04/19 01:32:41;;;;;;;29.83;18.92;;;4.90;99.90;;;;;;5071887;28;20433;-70
2021/04/19 01:35:07;;;;;;;28.67;18.27;;;5.00;99.90;;;;;;5071580;28;20550;-71
2021/04/19 01:37:33;;;;;;;31.65;18.15;;;4.80;99.90;;;;;;5072570;28;20414;-71
2021/04/19 01:39:59;;;;;;;28.58;17.27;;;4.70;99.90;;;;;;5073784;28;20044;-72
2021/04/19 01:42:24;;;;;;;28.65;17.27;;;4.70;99.90;;;;;;5072855;28;20028;-72
2021/04/19 01:44:50;;;;;;;24.08;17.13;;;4.70;99.90;;;;;;5071440;28;20470;-71
2021/04/19 01:47:17;;;;;;;31.58;20.27;;;4.60;99.90;;;;;;5072699;28;20021;-70
2021/04/19 01:49:43;;;;;;;29.00;18.02;;;4.60;99.90;;;;;;5072966;28;20381;-70
2021/04/19 01:52:09;;;;;;;31.55;19.05;;;4.60;99.90;;;;;;5072962;28;20103;-71
2021/04/19 01:54:35;;;;;;;27.50;18.95;;;4.60;99.90;;;;;;5072448;28;20059;-70
2021/04/19 01:57:00;;;;;;;30.38;20.27;;;4.60;99.90;;;;;;5071919;28;20064;-71
2021/04/19 01:59:28;;;;;;;29.02;18.80;;;4.60;99.90;;;;;;5071887;28;20074;-72
2021/04/19 02:01:59;;;;;;;31.48;20.33;;;4.50;99.90;;;;;;5072166;28;20032;-69
2021/04/19 02:05:17;;;;;;;35.53;19.92;;;4.50;99.90;;;;;;5071663;28;20016;-72
2021/04/19 02:07:59;;;;;;;33.80;20.73;;;4.40;99.90;;;;;;5038131;28;20040;-71
2021/04/19 02:10:30;;;;;;;31.60;21.08;;;4.40;99.90;;;;;;5072530;28;20031;-70
2021/04/19 02:13:32;;;;;;;33.45;19.88;;;4.50;99.90;;;;;;5071655;28;20024;-71
2021/04/19 02:16:19;;;;;;;29.98;20.25;;;4.50;99.90;;;;;;5046556;28;20029;-71
2021/04/19 02:19:14;;;;;;;33.92;21.20;;;4.50;99.90;;;;;;5071998;28;20024;-73
2021/04/19 02:21:52;;;;;;;34.70;20.05;;;4.70;99.90;;;;;;5053852;28;20029;-71
2021/04/19 02:24:23;;;;;;;31.73;20.20;;;4.70;99.90;;;;;;5072009;28;20017;-71
2021/04/19 02:26:56;;;;;;;36.22;21.08;;;4.70;99.90;;;;;;5072162;28;20478;-71
2021/04/19 02:29:31;;;;;;;35.70;22.17;;;4.70;99.90;;;;;;5072001;28;20025;-72
2021/04/19 02:32:02;;;;;;;34.08;21.85;;;4.70;99.90;;;;;;5072085;28;20028;-69
2021/04/19 02:34:31;;;;;;;30.80;20.08;;;4.80;99.90;;;;;;5078709;28;20027;-70
2021/04/19 02:36:58;;;;;;;30.10;19.33;;;4.70;99.90;;;;;;5075366;28;20478;-72
2021/04/19 02:39:25;;;;;;;30.80;18.17;;;4.70;99.90;;;;;;5071895;28;20032;-70
2021/04/19 02:41:53;;;;;;;28.60;18.95;;;4.70;99.90;;;;;;5071339;28;20036;-72
2021/04/19 02:44:21;;;;;;;29.30;19.05;;;4.70;99.90;;;;;;5052649;28;20016;-71
2021/04/19 02:46:52;;;;;;;28.33;18.83;;;4.80;99.90;;;;;;5073110;28;20079;-70
2021/04/19 02:49:21;;;;;;;31.77;19.33;;;4.80;99.90;;;;;;5072434;28;20028;-71
2021/04/19 02:51:49;;;;;;;29.75;18.15;;;4.80;99.90;;;;;;5071471;28;20451;-71
2021/04/19 02:54:17;;;;;;;26.70;18.65;;;4.70;99.90;;;;;;5070766;28;20025;-71
2021/04/19 02:56:43;;;;;;;32.33;18.33;;;4.70;99.90;;;;;;5070908;28;20036;-71
2021/04/19 02:59:10;;;;;;;35.78;19.20;;;4.70;99.90;;;;;;5074354;28;20029;-71
2021/04/19 03:01:40;;;;;;;36.58;20.13;;;4.80;99.90;;;;;;5075014;28;20112;-72
2021/04/19 03:04:10;;;;;;;32.95;20.83;;;4.90;99.90;;;;;;5073665;28;20383;-70
2021/04/19 03:06:39;;;;;;;36.67;20.90;;;5.00;99.90;;;;;;5074787;28;20029;-72
2021/04/19 03:09:06;;;;;;;36.92;20.90;;;5.00;99.90;;;;;;5074838;28;20039;-71
2021/04/19 03:11:38;;;;;;;36.97;21.25;;;5.00;99.90;;;;;;5056847;28;20149;-72
2021/04/19 03:14:08;;;;;;;26.92;18.08;;;4.90;99.90;;;;;;5073973;28;20024;-71
2021/04/19 03:16:39;;;;;;;31.42;19.20;;;4.90;99.90;;;;;;5056624;28;20044;-72
2021/04/19 03:19:08;;;;;;;38.35;19.30;;;4.90;99.90;;;;;;5074624;28;20394;-72
2021/04/19 03:21:39;;;;;;;30.83;18.85;;;4.80;99.90;;;;;;5074286;28;20028;-72
2021/04/19 03:24:08;;;;;;;28.38;18.00;;;4.80;99.90;;;;;;5073913;28;20386;-73
2021/04/19 03:26:34;;;;;;;27.75;17.52;;;4.80;99.90;;;;;;5056569;28;20059;-71
2021/04/19 03:29:02;;;;;;;27.02;17.65;;;4.70;99.90;;;;;;5074173;28;20020;-72
2021/04/19 03:31:47;;;;;;;28.73;17.98;;;4.60;99.90;;;;;;5074432;28;20021;-71
2021/04/19 03:34:20;;;;;;;29.25;17.23;;;4.50;99.90;;;;;;5055628;28;20071;-70
2021/04/19 03:36:50;;;;;;;25.75;17.48;;;4.40;99.90;;;;;;5074122;28;20050;-70
2021/04/19 03:39:17;;;;;;;25.85;17.05;;;4.40;99.90;;;;;;5074512;28;20024;-70
2021/04/19 03:41:47;;;;;;;24.35;16.25;;;4.30;99.90;;;;;;5074274;28;20028;-69
2021/04/19 03:44:17;;;;;;;25.17;17.10;;;4.30;99.90;;;;;;5073156;28;20474;-69
2021/04/19 03:46:43;;;;;;;34.80;19.02;;;4.50;99.90;;;;;;5074242;28;20111;-69
2021/04/19 03:49:17;;;;;;;25.45;17.70;;;4.70;99.90;;;;;;5074132;28;20052;-72
2021/04/19 03:51:46;;;;;;;32.97;19.23;;;4.60;99.90;;;;;;5073964;28;20029;-69
2021/04/19 03:54:13;;;;;;;31.20;19.70;;;4.80;99.90;;;;;;5073279;28;20029;-73
2021/04/19 03:56:40;;;;;;;29.63;18.17;;;4.90;99.90;;;;;;5073785;23;20569;-71
2021/04/19 03:59:15;;;;;;;33.85;19.55;;;5.00;99.90;;;;;;5043498;28;20029;-70
2021/04/19 04:01:43;;;;;;;31.73;18.45;;;5.00;99.90;;;;;;5035246;28;20489;-72
2021/04/19 04:04:10;;;;;;;30.15;16.80;;;4.90;99.90;;;;;;5048538;28;20028;-70
2021/04/19 04:06:37;;;;;;;26.80;16.80;;;4.80;99.90;;;;;;5060269;28;20112;-69
2021/04/19 04:09:04;;;;;;;29.90;18.08;;;4.60;99.90;;;;;;5062968;28;20020;-71
2021/04/19 04:11:30;;;;;;;24.20;16.40;;;4.50;99.90;;;;;;5054569;28;20028;-70
2021/04/19 04:13:56;;;;;;;24.98;16.52;;;4.50;99.90;;;;;;5054806;28;20052;-71
2021/04/19 04:16:21;;;;;;;25.42;15.98;;;4.50;99.90;;;;;;5072969;28;20075;-69
2021/04/19 04:18:47;;;;;;;27.83;17.00;;;4.50;99.90;;;;;;5072208;28;20024;-70
2021/04/19 04:21:14;;;;;;;24.45;15.80;;;4.40;99.90;;;;;;5072017;28;20028;-70
2021/04/19 04:23:40;;;;;;;26.08;16.85;;;4.40;99.90;;;;;;5071053;28;20067;-68
2021/04/19 04:26:06;;;;;;;26.95;15.95;;;4.40;99.90;;;;;;5071350;28;20158;-69
2021/04/19 04:28:32;;;;;;;24.27;16.00;;;4.40;99.90;;;;;;5071587;28;20025;-69
2021/04/19 04:30:57;;;;;;;24.35;16.98;;;4.50;99.90;;;;;;5071663;28;20071;-69
2021/04/19 04:33:23;;;;;;;27.27;17.55;;;4.50;99.90;;;;;;5071050;28;20020;-69
2021/04/19 04:35:49;;;;;;;26.60;17.02;;;4.40;99.90;;;;;;5071509;28;20032;-70
2021/04/19 04:38:14;;;;;;;26.33;16.42;;;4.50;99.90;;;;;;5052493;28;20025;-70
2021/04/19 04:40:40;;;;;;;26.60;16.30;;;4.60;99.90;;;;;;5034255;28;20477;-70
2021/04/19 04:43:12;;;;;;;25.70;16.88;;;4.50;99.90;;;;;;5052066;28;20205;-69
2021/04/19 04:45:39;;;;;;;29.73;17.05;;;4.60;99.90;;;;;;5051619;28;20508;-69
2021/04/19 04:48:42;;;;;;;30.73;17.90;;;4.60;99.90;;;;;;5051241;28;20037;-69
2021/04/19 04:51:13;;;;;;;32.50;16.17;;;4.70;99.90;;;;;;5051201;28;20025;-68
2021/04/19 04:53:45;;;;;;;25.83;16.42;;;4.60;99.90;;;;;;5050417;28;20050;-69
2021/04/19 04:56:13;;;;;;;26.40;17.33;;;4.50;99.90;;;;;;5050401;28;20029;-69
2021/04/19 04:58:42;;;;;;;23.60;15.98;;;4.60;99.90;;;;;;5059569;28;20510;-70
2021/04/19 05:01:09;;;;;;;25.23;17.15;;;4.70;99.90;;;;;;5032624;28;20036;-70
2021/04/19 05:03:39;;;;;;;28.45;16.80;;;4.70;99.90;;;;;;5050170;28;20033;-69
2021/04/19 05:06:08;;;;;;;27.70;18.13;;;4.80;99.90;;;;;;5049911;28;20100;-71
2021/04/19 05:08:38;;;;;;;25.40;16.33;;;4.80;99.90;;;;;;5050424;28;20021;-70
2021/04/19 05:11:04;;;;;;;25.08;16.17;;;5.00;99.90;;;;;;5050448;28;20029;-70
2021/04/19 05:13:30;;;;;;;24.88;16.48;;;5.10;99.90;;;;;;5049795;28;20029;-70
2021/04/19 05:15:56;;;;;;;24.67;15.48;;;5.30;99.90;;;;;;5050148;28;20029;-71
2021/04/19 05:18:21;;;;;;;22.85;14.38;;;5.90;99.90;;;;;;5052327;28;20112;-72
2021/04/19 05:20:47;;;;;;;20.25;13.85;;;7.00;99.90;;;;;;5061668;28;20091;-70
2021/04/19 05:23:15;;;;;;;22.80;15.73;;;6.70;99.90;;;;;;5058894;28;20013;-70
2021/04/19 05:25:42;;;;;;;26.45;16.10;;;6.30;99.90;;;;;;5072442;28;20025;-71
2021/04/19 05:28:08;;;;;;;22.40;15.52;;;5.90;99.90;;;;;;5072336;28;20052;-70
2021/04/19 05:30:34;;;;;;;24.77;16.42;;;5.60;99.90;;;;;;5054007;28;20020;-70
2021/04/19 05:33:02;;;;;;;24.15;15.65;;;5.50;99.90;;;;;;5070352;28;20108;-70
2021/04/19 05:35:28;;;;;;;27.77;15.77;;;5.40;99.90;;;;;;5071764;28;20482;-69
2021/04/19 05:37:55;;;;;;;23.30;15.60;;;5.40;99.90;;;;;;5083839;28;20086;-70
2021/04/19 05:40:26;;;;;;;24.95;14.48;;;5.50;99.90;;;;;;5085589;28;20021;-71
2021/04/19 05:42:52;;;;;;;26.83;15.80;;;5.50;99.90;;;;;;5086335;28;20055;-70
2021/04/19 05:45:19;;;;;;;30.75;15.45;;;5.30;99.90;;;;;;5070696;28;20053;-70
2021/04/19 05:47:49;;;;;;;26.30;15.75;;;5.20;99.90;;;;;;5051845;28;20025;-71
2021/04/19 05:50:20;;;;;;;20.10;13.93;;;5.40;99.90;;;;;;5032637;28;20033;-69
2021/04/19 05:52:48;;;;;;;27.40;15.40;;;5.60;99.90;;;;;;5049654;28;20363;-72
2021/04/19 05:55:15;;;;;;;22.30;15.15;;;5.60;99.90;;;;;;5031401;28;20119;-70
2021/04/19 05:58:19;;;;;;;27.30;15.77;;;5.70;99.90;;;;;;5058761;28;20036;-72
2021/04/19 06:00:55;;;;;;;24.38;15.40;;;5.80;99.90;;;;;;5069906;28;20028;-72
2021/04/19 06:03:32;;;;;;;21.90;15.07;;;5.70;99.90;;;;;;5069363;28;20103;-73
2021/04/19 06:06:13;;;;;;;23.48;14.88;;;5.70;99.90;;;;;;5068755;28;20024;-73
2021/04/19 06:08:44;;;;;;;32.63;15.65;;;5.80;99.90;;;;;;5069677;28;20032;-73
2021/04/19 06:11:36;;;;;;;21.08;15.40;;;5.90;99.90;;;;;;5069830;28;20060;-74
2021/04/19 06:14:03;;;;;;;23.83;15.90;;;6.00;99.90;;;;;;5067530;28;20036;-73
2021/04/19 06:16:36;;;;;;;24.02;15.65;;;5.90;99.90;;;;;;5064476;28;20100;-72
2021/04/19 06:19:03;;;;;;;21.83;15.10;;;5.90;99.90;;;;;;5057536;28;20033;-69
2021/04/19 06:21:30;;;;;;;24.05;15.05;;;5.70;99.90;;;;;;5071105;28;20029;-71
2021/04/19 06:23:56;;;;;;;23.20;15.82;;;5.70;99.90;;;;;;5070787;28;20044;-71
2021/04/19 06:26:21;;;;;;;29.15;16.98;;;5.90;99.90;;;;;;5070781;28;20355;-70
2021/04/19 06:28:49;;;;;;;26.55;15.90;;;5.90;99.90;;;;;;5070561;28;20048;-71
2021/04/19 06:31:17;;;;;;;22.58;15.80;;;5.70;99.90;;;;;;5052911;28;20490;-72
2021/04/19 06:34:03;;;;;;;24.02;15.43;;;5.70;99.90;;;;;;5068805;28;20037;-72
2021/04/19 06:36:38;;;;;;;29.52;16.77;;;5.80;99.90;;;;;;5075025;28;20035;-70
2021/04/19 06:39:06;;;;;;;28.45;17.67;;;5.70;99.90;;;;;;5075124;28;20029;-70
2021/04/19 06:41:31;;;;;;;25.60;16.98;;;5.60;99.90;;;;;;5065980;28;20033;-70
2021/04/19 06:43:59;;;;;;;34.95;18.50;;;5.60;99.90;;;;;;5054415;28;20025;-70
2021/04/19 06:46:29;;;;;;;27.50;18.08;;;5.70;99.90;;;;;;5058180;28;20025;-71
2021/04/19 06:48:55;;;;;;;27.17;18.50;;;5.80;99.90;;;;;;5074664;28;20024;-71
2021/04/19 06:51:21;;;;;;;31.23;19.40;;;5.80;99.90;;;;;;5074853;28;20032;-72
2021/04/19 06:53:50;;;;;;;35.00;19.25;;;5.70;99.90;;;;;;5074083;28;20094;-71
2021/04/19 06:56:19;;;;;;;27.80;17.50;;;5.60;99.90;;;;;;5056225;28;20040;-71
2021/04/19 06:58:46;;;;;;;30.52;17.75;;;5.50;99.90;;;;;;5069280;28;20045;-71
2021/04/19 07:01:12;;;;;;;29.40;18.45;;;5.40;99.90;;;;;;5054573;28;20055;-70
2021/04/19 07:03:41;;;;;;;29.67;18.27;;;5.20;99.90;;;;;;5035947;28;20021;-70
2021/04/19 07:06:09;;;;;;;26.48;18.23;;;5.20;99.90;;;;;;5054294;28;20025;-70
2021/04/19 07:08:43;;;;;;;30.83;18.38;;;5.30;99.90;;;;;;5054417;28;20055;-70
2021/04/19 07:11:11;;;;;;;30.05;19.50;;;5.40;99.90;;;;;;5074759;28;20024;-72
2021/04/19 07:13:38;;;;;;;28.98;19.30;;;5.50;99.90;;;;;;5072515;28;20040;-71
2021/04/19 07:16:05;;;;;;;30.75;18.48;;;5.50;99.90;;;;;;5054269;28;20035;-70
2021/04/19 07:18:32;;;;;;;30.65;19.40;;;5.60;99.90;;;;;;5053833;28;20479;-70
2021/04/19 07:20:58;;;;;;;34.05;19.20;;;5.70;99.90;;;;;;5053929;28;20056;-70
2021/04/19 07:23:24;;;;;;;28.65;19.90;;;5.70;99.90;;;;;;5053429;28;20138;-69
2021/04/19 07:25:50;;;;;;;27.58;19.52;;;5.60;99.90;;;;;;5053549;28;20040;-71
2021/04/19 07:28:16;;;;;;;31.83;19.75;;;5.70;99.90;;;;;;5053745;28;20694;-70
2021/04/19 07:30:43;;;;;;;24.85;18.25;;;5.70;99.90;;;;;;5053766;28;20083;-71
2021/04/19 07:33:32;;;;;;;31.05;19.95;;;5.70;99.90;;;;;;5053514;28;20052;-70
2021/04/19 07:36:19;;;;;;;27.83;18.33;;;5.70;99.90;;;;;;5036125;28;20028;-72
2021/04/19 07:38:45;;;;;;;29.20;19.20;;;5.80;99.90;;;;;;5028530;28;20501;-70
2021/04/19 07:41:10;;;;;;;34.15;20.52;;;5.70;99.90;;;;;;5053830;28;20342;-70
2021/04/19 07:43:37;;;;;;;32.00;21.50;;;5.90;99.90;;;;;;5052840;28;20032;-70
2021/04/19 07:46:13;;;;;;;36.33;19.67;;;6.10;99.90;;;;;;5053170;28;20546;-70
2021/04/19 07:48:44;;;;;;;31.23;19.10;;;6.20;99.90;;;;;;5053425;28;20025;-71
2021/04/19 07:51:29;;;;;;;30.80;20.77;;;6.30;99.90;;;;;;5053400;28;20078;-69
2021/04/19 07:54:19;;;;;;;26.80;19.05;;;6.30;99.90;;;;;;5052986;28;20032;-71
2021/04/19 07:57:07;;;;;;;26.50;18.33;;;6.20;99.90;;;;;;5053271;28;20572;-72
2021/04/19 07:59:36;;;;;;;28.15;18.13;;;6.20;99.90;;;;;;5070099;28;20478;-70
2021/04/19 08:02:01;;;;;;;30.05;18.83;;;6.10;99.90;;;;;;5055307;28;20029;-72
2021/04/19 08:04:28;;;;;;;27.25;18.73;;;6.40;99.90;;;;;;5072678;28;20374;-72
2021/04/19 08:06:55;;;;;;;29.67;18.92;;;6.50;99.90;;;;;;5073199;28;20027;-71
2021/04/19 08:09:32;;;;;;;29.15;19.42;;;6.40;99.90;;;;;;5073137;28;20017;-72
2021/04/19 08:12:07;;;;;;;25.42;17.60;;;6.30;99.90;;;;;;5055523;28;20185;-72
2021/04/19 08:14:33;;;;;;;31.45;19.70;;;6.30;99.90;;;;;;5064146;28;20029;-72
2021/04/19 08:17:10;;;;;;;32.67;19.50;;;6.30;99.90;;;;;;5052749;28;20691;-73
2021/04/19 08:19:39;;;;;;;26.27;18.10;;;6.40;99.90;;;;;;5053149;28;20021;-73
2021/04/19 08:22:16;;;;;;;29.30;18.10;;;6.40;99.90;;;;;;5053104;28;20029;-72
2021/04/19 08:24:42;;;;;;;30.95;20.20;;;6.60;99.90;;;;;;5052673;28;20017;-72
2021/04/19 08:27:16;;;;;;;29.83;19.08;;;6.30;99.90;;;;;;5052905;28;20043;-73
2021/04/19 08:29:45;;;;;;;30.20;19.42;;;6.20;99.90;;;;;;5070726;28;20476;-78
2021/04/19 08:32:16;;;;;;;32.45;19.98;;;6.20;99.90;;;;;;5072398;28;20044;-73
2021/04/19 08:34:43;;;;;;;33.80;19.35;;;6.40;99.90;;;;;;5054131;28;20445;-73
2021/04/19 08:37:11;;;;;;;61.70;36.13;;;6.40;99.90;;;;;;5072746;28;20024;-72
2021/04/19 08:39:39;;;;;;;30.60;19.73;;;6.40;99.90;;;;;;5072794;28;20074;-73
2021/04/19 08:42:06;;;;;;;29.20;19.35;;;6.40;99.90;;;;;;5072566;28;20473;-73
2021/04/19 08:44:34;;;;;;;24.40;17.65;;;6.70;99.90;;;;;;5071328;28;20047;-73
2021/04/19 08:47:00;;;;;;;27.65;18.52;;;6.70;99.90;;;;;;5072054;28;20020;-73
2021/04/19 08:49:28;;;;;;;41.10;21.75;;;6.60;99.90;;;;;;5071779;28;20051;-71
2021/04/19 08:51:54;;;;;;;39.58;23.38;;;6.80;99.90;;;;;;5072299;28;20132;-74
2021/04/19 08:54:21;;;;;;;27.60;18.48;;;6.70;99.90;;;;;;5053566;28;20046;-74
2021/04/19 08:56:47;;;;;;;26.98;18.10;;;7.00;99.90;;;;;;5071347;28;20402;-72
2021/04/19 08:59:14;;;;;;;38.63;22.73;;;7.00;99.90;;;;;;5071565;28;20043;-72
2021/04/19 09:01:42;;;;;;;37.20;20.55;;;7.00;99.90;;;;;;5071996;28;20058;-73
2021/04/19 09:04:09;;;;;;;28.98;18.85;;;7.20;99.90;;;;;;5053454;28;20582;-73
2021/04/19 09:06:44;;;;;;;27.48;18.80;;;7.10;99.90;;;;;;5071831;28;20016;-71
2021/04/19 09:09:15;;;;;;;29.85;19.23;;;7.00;99.90;;;;;;5071509;28;20024;-71
2021/04/19 09:11:41;;;;;;;30.58;19.00;;;7.00;99.90;;;;;;5072164;28;20032;-73
2021/04/19 09:14:10;;;;;;;27.58;18.88;;;7.20;99.90;;;;;;5065786;28;20023;-72
2021/04/19 09:16:41;;;;;;;30.08;19.48;;;7.30;99.90;;;;;;5033731;28;20028;-73
2021/04/19 09:19:08;;;;;;;34.28;19.27;;;7.30;99.90;;;;;;5034243;28;20036;-72
2021/04/19 09:21:50;;;;;;;33.20;22.17;;;7.30;99.90;;;;;;5051350;28;20056;-74
2021/04/19 09:24:17;;;;;;;;;;;7.70;99.90;;;;;;5051474;28;20143;-73
2021/04/19 09:26:47;;;;;;;32.40;21.77;;;7.60;99.90;;;;;;5033836;28;20309;-72
2021/04/19 09:29:25;;;;;;;43.53;27.05;;;7.50;99.90;;;;;;5051991;28;20472;-72
2021/04/19 09:32:09;;;;;;;42.10;25.45;;;7.80;99.90;;;;;;5051327;28;20025;-75
2021/04/19 09:34:49;;;;;;;32.25;21.00;;;8.10;99.90;;;;;;5070202;28;20093;-72
2021/04/19 09:37:43;;;;;;;58.13;32.67;;;8.20;99.90;;;;;;5071937;28;20062;-73
2021/04/19 09:40:21;;;;;;;27.80;19.08;;;8.30;99.90;;;;;;5071583;28;20513;-71
2021/04/19 09:42:56;;;;;;;37.55;22.40;;;7.70;99.90;;;;;;5070719;28;20534;-73
2021/04/19 09:45:40;;;;;;;32.60;21.10;;;7.40;99.90;;;;;;5071213;28;20074;-72
2021/04/19 09:48:07;;;;;;;31.75;21.35;;;7.60;99.90;;;;;;5071966;28;20025;-72
2021/04/19 09:50:33;;;;;;;32.20;22.42;;;7.60;99.90;;;;;;5071945;28;20052;-73
2021/04/19 09:52:59;;;;;;;37.40;22.52;;;8.00;99.90;;;;;;5066038;28;20051;-73
2021/04/19 09:55:25;;;;;;;33.60;23.08;;;8.00;99.90;;;;;;5051124;28;20037;-73
2021/04/19 09:57:52;;;;;;;34.67;22.83;;;8.30;99.90;;;;;;5054350;28;20079;-71
2021/04/19 10:00:18;;;;;;;30.95;20.50;;;8.60;99.90;;;;;;5057435;28;20656;-73
2021/04/19 10:02:44;;;;;;;34.17;23.42;;;9.10;99.90;;;;;;5049089;28;20029;-73
2021/04/19 10:05:15;;;;;;;33.97;21.02;;;9.30;99.90;;;;;;5050612;28;20021;-74
2021/04/19 10:07:44;;;;;;;34.20;21.17;;;9.40;99.90;;;;;;5050318;28;20672;-72
2021/04/19 10:10:17;;;;;;;35.22;22.98;;;8.90;99.90;;;;;;5033234;28;20021;-73
2021/04/19 10:12:47;;;;;;;27.70;19.65;;;8.80;99.90;;;;;;5050149;28;20447;-74
2021/04/19 10:15:20;;;;;;;40.60;26.60;;;8.60;99.90;;;;;;5062963;28;20494;-73
2021/04/19 10:17:47;;;;;;;31.83;21.65;;;8.70;99.90;;;;;;5051592;28;20028;-74
2021/04/19 10:20:22;;;;;;;34.17;21.23;;;8.80;99.90;;;;;;5069463;28;20031;-74
2021/04/19 10:23:05;;;;;;;30.60;20.15;;;8.80;99.90;;;;;;5051029;28;20024;-74
2021/04/19 10:25:32;;;;;;;34.42;21.35;;;8.60;99.90;;;;;;5069126;28;20195;-73
2021/04/19 10:27:58;;;;;;;33.63;20.98;;;8.50;99.90;;;;;;5069605;28;20771;-73
2021/04/19 10:30:24;;;;;;;30.52;20.50;;;8.60;99.90;;;;;;5068565;28;20039;-74
2021/04/19 10:32:50;;;;;;;29.10;20.77;;;8.50;99.90;;;;;;5050937;28;20049;-73
2021/04/19 10:35:34;;;;;;;30.38;21.08;;;8.30;99.90;;;;;;5069030;28;20036;-73
2021/04/19 10:38:00;;;;;;;36.88;20.77;;;8.50;99.90;;;;;;5069473;28;20025;-71
2021/04/19 10:40:26;;;;;;;31.17;20.92;;;8.50;99.90;;;;;;5069440;28;20078;-73
2021/04/19 10:42:53;;;;;;;28.83;20.50;;;8.30;99.90;;;;;;5068475;28;20033;-71
2021/04/19 10:45:19;;;;;;;32.38;21.42;;;8.40;99.90;;;;;;5068821;28;20070;-73
2021/04/19 10:47:45;;;;;;;33.13;20.30;;;9.00;99.90;;;;;;5070105;28;20490;-74
2021/04/19 10:50:11;;;;;;;29.20;19.35;;;8.80;99.90;;;;;;5070107;28;20024;-71
2021/04/19 10:52:37;;;;;;;36.15;21.65;;;9.00;99.90;;;;;;5069771;28;20488;-72
2021/04/19 10:55:09;;;;;;;30.40;20.75;;;8.90;99.90;;;;;;5069811;28;20111;-73
2021/04/19 10:57:35;;;;;;;31.83;20.50;;;9.30;99.90;;;;;;5048916;28;20078;-74
2021/04/19 11:00:06;;;;;;;32.72;20.10;;;9.40;99.90;;;;;;5051351;28;20032;-71
2021/04/19 11:02:33;;;;;;;31.92;21.20;;;8.80;99.90;;;;;;5069152;28;20032;-74
2021/04/19 11:04:59;;;;;;;32.90;21.13;;;8.60;99.90;;;;;;5068845;28;20025;-74
2021/04/19 11:07:31;;;;;;;29.83;20.77;;;8.70;99.90;;;;;;5069330;28;20116;-72
2021/04/19 11:10:24;;;;;;;30.10;19.20;;;8.80;99.90;;;;;;5069798;28;20021;-74
2021/04/19 11:12:59;;;;;;;29.50;19.45;;;9.00;99.90;;;;;;5069609;28;20025;-73
2021/04/19 11:15:31;;;;;;;29.52;20.48;;;9.20;99.90;;;;;;5053448;28;20017;-73
2021/04/19 11:17:57;;;;;;;;;;;9.40;99.90;;;;;;5049987;28;20025;-73
2021/04/19 11:20:27;;;;;;;29.13;19.13;;;9.70;99.90;;;;;;5053175;28;19912;-72
2021/04/19 11:22:54;;;;;;;27.92;19.25;;;9.30;99.90;;;;;;5052269;28;20036;-73
2021/04/19 11:25:26;;;;;;;28.67;19.92;;;9.00;99.90;;;;;;5052905;28;20036;-74
2021/04/19 11:28:12;;;;;;;28.60;19.60;;;9.20;99.90;;;;;;5053049;28;20107;-74
2021/04/19 11:30:38;;;;;;;27.45;19.02;;;9.40;99.90;;;;;;5052872;28;20055;-74
2021/04/19 11:33:07;;;;;;;31.00;19.73;;;9.50;99.90;;;;;;5053394;28;20498;-73
2021/04/19 11:35:38;;;;;;;30.67;20.02;;;9.40;99.90;;;;;;5053190;28;20040;-74
2021/04/19 11:38:06;;;;;;;28.25;21.15;;;9.40;99.90;;;;;;5054921;28;20035;-73
2021/04/19 11:40:40;;;;;;;25.92;18.52;;;9.60;99.90;;;;;;5054359;28;20021;-73
2021/04/19 11:43:46;;;;;;;28.02;19.63;;;9.60;99.90;;;;;;5061307;28;20032;-72
2021/04/19 11:46:13;;;;;;;26.85;17.52;;;9.90;99.90;;;;;;5048523;28;20139;-73
2021/04/19 11:48:42;;;;;;;29.95;19.98;;;10.10;99.90;;;;;;5055077;28;20024;-73
2021/04/19 11:51:09;;;;;;;31.20;19.48;;;10.20;99.90;;;;;;5062629;28;20108;-73
2021/04/19 11:53:38;;;;;;;29.42;19.73;;;10.30;99.90;;;;;;5064427;28;20035;-72
2021/04/19 11:56:05;;;;;;;28.90;19.58;;;10.00;99.90;;;;;;5063391;28;20041;-72
2021/04/19 11:58:33;;;;;;;34.53;20.23;;;10.10;99.90;;;;;;5082343;28;20021;-73
2021/04/19 12:00:59;;;;;;;29.75;19.90;;;9.80;99.90;;;;;;5078259;28;20074;-73
2021/04/19 12:03:25;;;;;;;23.98;18.13;;;9.80;99.90;;;;;;5078910;28;20108;-73
2021/04/19 12:05:52;;;;;;;31.95;20.58;;;9.90;99.90;;;;;;5085427;28;20044;-75
2021/04/19 12:08:18;;;;;;;29.35;19.95;;;9.80;99.90;;;;;;5088143;28;20031;-75
2021/04/19 12:10:44;;;;;;;27.85;19.70;;;9.80;99.90;;;;;;5091449;28;20096;-77
2021/04/19 12:13:16;;;;;;;30.80;19.55;;;10.00;99.90;;;;;;5071263;28;20043;-75
2021/04/19 12:15:43;;;;;;;;;;;10.00;99.90;;;;;;5083094;28;20023;-72
2021/04/19 12:18:12;;;;;;;29.95;19.48;;;10.30;99.90;;;;;;5067650;28;19979;-74
2021/04/19 12:20:38;;;;;;;31.80;19.00;;;10.50;99.90;;;;;;5066828;28;20074;-74
2021/04/19 12:23:04;;;;;;;29.25;19.20;;;10.40;99.90;;;;;;5085251;28;20074;-74
2021/04/19 12:25:31;;;;;;;30.05;18.92;;;10.40;99.90;;;;;;5066062;28;20028;-73
2021/04/19 12:27:58;;;;;;;26.20;18.65;;;10.10;99.90;;;;;;5066491;28;20044;-74
2021/04/19 12:30:25;;;;;;;24.98;17.70;;;10.00;99.90;;;;;;5063879;28;20045;-74
2021/04/19 12:32:51;;;;;;;20.67;15.73;;;10.00;99.90;;;;;;5065016;28;20047;-74
2021/04/19 12:35:19;;;;;;;26.98;16.95;;;9.80;99.90;;;;;;5042752;28;20025;-74
2021/04/19 12:37:44;;;;;;;28.38;16.75;;;9.80;99.90;;;;;;5061436;28;20024;-74
2021/04/19 12:40:11;;;;;;;21.42;14.32;;;10.10;99.90;;;;;;5062859;28;20475;-74
2021/04/19 12:42:36;;;;;;;20.88;15.50;;;10.20;99.90;;;;;;5063524;28;20043;-74
2021/04/19 12:45:02;;;;;;;22.45;14.45;;;10.30;99.90;;;;;;5062416;28;20025;-74
2021/04/19 12:47:28;;;;;;;22.45;16.15;;;9.90;99.90;;;;;;5058477;28;20049;-74
2021/04/19 12:49:53;;;;;;;19.63;13.80;;;10.10;99.90;;;;;;5054031;28;20336;-75
2021/04/19 12:52:19;;;;;;;21.23;13.80;;;10.10;99.90;;;;;;5054163;28;20071;-74